Have a Safe July 4th! 

Flight Track Log - Related Links

Times and Time Zones

All times are in EDT time to prevent confusion due to time zone crossing. See the SWA1718 flight status page for this flight to view local times or setup timezone preferences in your user account.

Time Position Orientation Groundspeed Altitude Reporting Facility
EDT Latitude Longitude Course Direction KTS MPH feet Rate Location/Type
Fri 10:03:25 PM 41.7833 -87.8000 37° Northeast 200 230 2,600  Level Chicago TRACON
Fri 10:04:25 PM 41.8333 -87.7500 37° Northeast 251 289 3,300 1,900 Climbing Chicago TRACON
Fri 10:05:25 PM 41.8333 -87.6667 90° East 225 259 6,400 2,900 Climbing Chicago TRACON
Fri 10:06:25 PM 41.8167 -87.5667 103° East 257 296 9,100 2,492 Climbing Chicago TRACON
Fri 10:07:35 PM 41.7931 -87.4661 107° East 289 333 11,800 2,473 Climbing Chicago Center
Fri 10:08:36 PM 41.7783 -87.3581 100° East 297 342 14,500 2,607 Climbing Chicago Center
Fri 10:09:37 PM 41.7703 -87.2136 94° East 325 374 17,100 2,000 Climbing Chicago Center
Fri 10:10:39 PM 41.7675 -87.0856 92° East 351 404 18,600 1,268 Climbing Chicago Center
Fri 10:11:40 PM 41.7839 -86.9428 81° East 388 447 19,700 1,268 Climbing Chicago Center
Fri 10:12:42 PM 41.8006 -86.7847 82° East 427 491 21,200 1,610 Climbing Chicago Center
Fri 10:13:43 PM 41.8172 -86.6222 82° East 443 510 23,000 1,770 Climbing Chicago Center
Fri 10:14:44 PM 41.8333 -86.4569 82° East 452 520 24,800 1,610 Climbing Chicago Center
Fri 10:15:46 PM 41.8508 -86.2864 82° East 459 528 26,300 1,415 Climbing Chicago Center
Fri 10:16:47 PM 41.8683 -86.1108 82° East 469 540 27,700 1,328 Climbing Chicago Center
Fri 10:17:48 PM 41.8856 -85.9308 83° East 480 552 29,000 1,317 Climbing Chicago Center
Fri 10:18:50 PM 41.9064 -85.7158 83° East 481 554 30,400 1,024 Climbing Chicago Center
Fri 10:19:51 PM 41.9244 -85.5264 83° East 501 577 31,100 661 Climbing Chicago Center
Fri 10:20:57 PM 41.9450 -85.3325 82° East 499 574 31,800 905 Climbing Cleveland Center
Fri 10:21:57 PM 41.9528 -85.1378 87° East 509 586 33,000 1,050 Climbing Cleveland Center
Fri 10:22:57 PM 41.9550 -84.9256 89° East 521 600 33,900 1,000 Climbing Cleveland Center
Fri 10:23:57 PM 41.9703 -84.7308 84° East 516 594 35,000 550 Climbing Cleveland Center
Fri 10:24:57 PM 41.9897 -84.5394 82° East 516 594 35,000  Level Cleveland Center
Fri 10:25:57 PM 42.0167 -84.3536 79° East 516 594 35,000  Level Cleveland Center
Fri 10:26:57 PM 42.0325 -84.1869 83° East 510 587 35,000  Level Cleveland Center
Fri 10:27:57 PM 42.0528 -84.0033 81° East 499 574 35,000  Level Cleveland Center
Fri 10:28:57 PM 42.0756 -83.7975 81° East 499 574 35,000  Level Cleveland Center
Fri 10:29:57 PM 42.0950 -83.6167 82° East 499 574 35,000  Level Cleveland Center
Fri 10:30:57 PM 42.1164 -83.4300 81° East 504 580 35,000  Level Cleveland Center
Fri 10:31:57 PM 42.1375 -83.2433 81° East 499 574 35,000  Level Cleveland Center
Fri 10:32:57 PM 42.1542 -83.0619 83° East 499 574 35,000  Level Cleveland Center
Fri 10:33:57 PM 42.1767 -82.8750 81° East 499 574 35,000  Level Cleveland Center
Fri 10:34:57 PM 42.1947 -82.6936 82° East 499 574 35,000  Level Cleveland Center
Fri 10:35:57 PM 42.2128 -82.5092 82° East 494 568 35,000  Level Cleveland Center
Fri 10:36:57 PM 42.2303 -82.3275 83° East 494 568 35,000  Level Cleveland Center
Fri 10:37:57 PM 42.2494 -82.1428 82° East 494 568 35,000  Level Cleveland Center
Fri 10:38:57 PM 42.2664 -81.9581 83° East 500 575 35,000  Level Cleveland Center
Fri 10:39:57 PM 42.2853 -81.7758 82° East 495 570 35,000 -50 Level Cleveland Center
Fri 10:40:57 PM 42.3036 -81.5911 82° East 495 570 34,900 -1,650 Descending Cleveland Center
Fri 10:41:57 PM 42.3197 -81.4031 83° East 503 579 31,700 -2,950 Descending Cleveland Center
Fri 10:42:57 PM 42.3356 -81.2208 83° East 497 572 29,000 -2,350 Descending Cleveland Center
Fri 10:43:57 PM 42.3508 -81.0439 83° East 485 558 27,000 -1,000 Descending Cleveland Center
Fri 10:44:57 PM 42.3639 -80.8753 84° East 460 529 27,000  Level Cleveland Center
Fri 10:45:57 PM 42.3789 -80.7208 82° East 460 529 27,000  Level Cleveland Center
Fri 10:46:57 PM 42.3914 -80.5467 84° East 460 529 27,000  Level Cleveland Center
Fri 10:47:57 PM 42.4058 -80.3778 83° East 461 531 27,000 -700 Level Cleveland Center
Fri 10:48:57 PM 42.4219 -80.2033 83° East 461 531 25,600 -2,100 Descending Cleveland Center
Fri 10:49:57 PM 42.4339 -80.0261 85° East 461 531 22,800 -2,650 Descending Cleveland Center
Fri 10:50:57 PM 42.4475 -79.8656 83° East 455 524 20,300 -2,450 Descending Cleveland Center
Fri 10:51:57 PM 42.4569 -79.7081 85° East 435 501 17,900 -2,200 Descending Cleveland Center
Fri 10:52:57 PM 42.4744 -79.5586 81° East 416 479 15,900 -1,750 Descending Cleveland Center
Fri 10:53:57 PM 42.5422 -79.4561 48° Northeast 360 414 14,400 -1,850 Descending Cleveland Center
Fri 10:54:57 PM 42.6122 -79.3672 43° Northeast 340 391 12,200 -1,950 Descending Cleveland Center
Fri 10:55:57 PM 42.6758 -79.2842 44° Northeast 330 380 10,500 -1,400 Descending Cleveland Center
Fri 10:56:57 PM 42.7314 -79.2067 46° Northeast 304 350 9,400 -1,500 Descending Cleveland Center
Fri 10:57:57 PM 42.7908 -79.1289 44° Northeast 269 310 7,500 -1,700 Descending Cleveland Center
Fri 10:58:57 PM 42.8442 -79.0597 44° Northeast 262 302 6,000 -1,700 Descending Cleveland Center
Fri 10:59:57 PM 42.9036 -78.9903 41° Northeast 267 307 4,100 -1,000 Descending Cleveland Center
Fri 11:00:57 PM 42.9569 -78.9294 40° Northeast 273 314 4,000 -53 Descending Cleveland Center
Fri 11:01:51 PM 43.0167 -78.8667 38° Northeast 240 276 4,000 53 Level Buffalo TRACON
Fri 11:02:51 PM 43.0667 -78.8000 44° Northeast 223 257 4,100 -316 Climbing Buffalo TRACON
Fri 11:03:45 PM 43.0500 -78.7500 115° Southeast 195 224 3,400 -842 Descending Buffalo TRACON
Fri 11:04:45 PM 43.0167 -78.6833 124° Southeast 160 184 2,500 -850 Descending Buffalo TRACON
Fri 11:05:45 PM 42.9833 -78.6667 160° South 139 160 1,700 -800 Descending Buffalo TRACON

Login

Don't have an account? Register now (free) for customized features, flight alerts, and more!